sensor_id;sensor_type;location;lat;lon;timestamp;pressure;altitude;pressure_sealevel;temperature;humidity
19777;BME280;10047;42.490;26.012;2023-06-10T00:04:26;104228.47;;;18.64;100.00
19777;BME280;10047;42.490;26.012;2023-06-10T00:06:52;104215.72;;;18.89;100.00
19777;BME280;10047;42.490;26.012;2023-06-10T00:09:19;104221.88;;;19.13;100.00
19777;BME280;10047;42.490;26.012;2023-06-10T00:11:46;104201.84;;;18.74;100.00
19777;BME280;10047;42.490;26.012;2023-06-10T00:17:33;104154.31;;;18.40;100.00
19777;BME280;10047;42.490;26.012;2023-06-10T00:19:59;104134.66;;;18.48;100.00
19777;BME280;10047;42.490;26.012;2023-06-10T00:22:24;104059.53;;;17.94;100.00
19777;BME280;10047;42.490;26.012;2023-06-10T00:24:54;104194.06;;;18.66;100.00
19777;BME280;10047;42.490;26.012;2023-06-10T00:30:42;104163.03;;;18.53;100.00
19777;BME280;10047;42.490;26.012;2023-06-10T00:33:07;104177.72;;;18.61;100.00
19777;BME280;10047;42.490;26.012;2023-06-10T00:35:33;104146.72;;;18.52;100.00
19777;BME280;10047;42.490;26.012;2023-06-10T00:37:58;104183.03;;;18.85;100.00
19777;BME280;10047;42.490;26.012;2023-06-10T00:40:23;104176.09;;;18.80;100.00
19777;BME280;10047;42.490;26.012;2023-06-10T00:42:49;104096.69;;;18.29;100.00
19777;BME280;10047;42.490;26.012;2023-06-10T00:45:14;104128.69;;;18.54;100.00
19777;BME280;10047;42.490;26.012;2023-06-10T00:47:40;104113.91;;;18.36;100.00
19777;BME280;10047;42.490;26.012;2023-06-10T00:53:27;104111.28;;;18.24;100.00
19777;BME280;10047;42.490;26.012;2023-06-10T00:55:53;104074.25;;;18.14;100.00
19777;BME280;10047;42.490;26.012;2023-06-10T00:58:19;104121.66;;;18.36;100.00
19777;BME280;10047;42.490;26.012;2023-06-10T01:00:45;104101.91;;;18.35;100.00
19777;BME280;10047;42.490;26.012;2023-06-10T01:03:10;104047.59;;;18.05;100.00
19777;BME280;10047;42.490;26.012;2023-06-10T01:05:37;104094.16;;;18.32;100.00
19777;BME280;10047;42.490;26.012;2023-06-10T01:10:57;104076.91;;;18.24;100.00
19777;BME280;10047;42.490;26.012;2023-06-10T01:13:25;104061.47;;;18.27;100.00
19777;BME280;10047;42.490;26.012;2023-06-10T01:19:15;104010.47;;;17.76;100.00
19777;BME280;10047;42.490;26.012;2023-06-10T01:21:42;104124.44;;;18.66;100.00
19777;BME280;10047;42.490;26.012;2023-06-10T01:24:14;104100.16;;;18.28;100.00
19777;BME280;10047;42.490;26.012;2023-06-10T01:26:40;104099.34;;;18.41;100.00
19777;BME280;10047;42.490;26.012;2023-06-10T01:29:12;104023.47;;;17.94;100.00
19777;BME280;10047;42.490;26.012;2023-06-10T01:37:30;104067.34;;;18.06;100.00
19777;BME280;10047;42.490;26.012;2023-06-10T01:39:57;103997.69;;;17.88;100.00
19777;BME280;10047;42.490;26.012;2023-06-10T01:42:25;103944.22;;;17.55;100.00
19777;BME280;10047;42.490;26.012;2023-06-10T01:48:12;103940.88;;;17.64;100.00
19777;BME280;10047;42.490;26.012;2023-06-10T01:50:37;103928.06;;;17.74;100.00
19777;BME280;10047;42.490;26.012;2023-06-10T01:53:04;103885.97;;;17.65;100.00
19777;BME280;10047;42.490;26.012;2023-06-10T01:55:30;103898.97;;;17.95;100.00
19777;BME280;10047;42.490;26.012;2023-06-10T01:57:57;103887.00;;;17.98;100.00
19777;BME280;10047;42.490;26.012;2023-06-10T02:00:22;103860.34;;;17.93;100.00
19777;BME280;10047;42.490;26.012;2023-06-10T02:02:48;103854.34;;;17.99;100.00
19777;BME280;10047;42.490;26.012;2023-06-10T02:05:13;103751.09;;;17.42;100.00
19777;BME280;10047;42.490;26.012;2023-06-10T02:07:39;103795.84;;;17.63;100.00
19777;BME280;10047;42.490;26.012;2023-06-10T02:10:05;103788.97;;;17.56;100.00
19777;BME280;10047;42.490;26.012;2023-06-10T02:12:31;103786.34;;;17.52;100.00
19777;BME280;10047;42.490;26.012;2023-06-10T02:14:56;103762.38;;;17.62;100.00
19777;BME280;10047;42.490;26.012;2023-06-10T02:17:22;103788.19;;;17.78;100.00
19777;BME280;10047;42.490;26.012;2023-06-10T02:19:48;103752.09;;;17.62;100.00
19777;BME280;10047;42.490;26.012;2023-06-10T02:22:20;103758.03;;;17.52;100.00
19777;BME280;10047;42.490;26.012;2023-06-10T02:28:07;103777.06;;;17.85;100.00
19777;BME280;10047;42.490;26.012;2023-06-10T02:33:53;103788.19;;;17.78;100.00
19777;BME280;10047;42.490;26.012;2023-06-10T02:36:19;103795.16;;;18.17;100.00
19777;BME280;10047;42.490;26.012;2023-06-10T02:38:46;103746.22;;;18.23;100.00
19777;BME280;10047;42.490;26.012;2023-06-10T02:41:12;103812.44;;;18.96;100.00
19777;BME280;10047;42.490;26.012;2023-06-10T02:43:37;103746.25;;;18.71;100.00
19777;BME280;10047;42.490;26.012;2023-06-10T02:46:03;103763.47;;;18.44;100.00
19777;BME280;10047;42.490;26.012;2023-06-10T02:48:28;103760.88;;;18.60;100.00
19777;BME280;10047;42.490;26.012;2023-06-10T02:50:53;103846.78;;;19.26;100.00
19777;BME280;10047;42.490;26.012;2023-06-10T02:56:42;103732.38;;;17.61;100.00
19777;BME280;10047;42.490;26.012;2023-06-10T02:59:07;103135.41;;;17.24;100.00
19777;BME280;10047;42.490;26.012;2023-06-10T03:01:34;103132.28;;;18.09;100.00
19777;BME280;10047;42.490;26.012;2023-06-10T03:04:03;103067.53;;;17.53;100.00
19777;BME280;10047;42.490;26.012;2023-06-10T03:09:50;102921.84;;;17.35;100.00
19777;BME280;10047;42.490;26.012;2023-06-10T03:15:50;102852.00;;;17.73;100.00
19777;BME280;10047;42.490;26.012;2023-06-10T03:18:15;102760.50;;;17.46;100.00
19777;BME280;10047;42.490;26.012;2023-06-10T03:20:41;102777.56;;;17.58;100.00
19777;BME280;10047;42.490;26.012;2023-06-10T03:23:06;102799.09;;;17.46;100.00
19777;BME280;10047;42.490;26.012;2023-06-10T03:25:32;102775.09;;;17.44;100.00
19777;BME280;10047;42.490;26.012;2023-06-10T03:27:57;102733.22;;;17.31;100.00
19777;BME280;10047;42.490;26.012;2023-06-10T03:33:45;102536.56;;;16.94;100.00
19777;BME280;10047;42.490;26.012;2023-06-10T03:36:10;102540.22;;;17.94;100.00
19777;BME280;10047;42.490;26.012;2023-06-10T03:38:36;102545.53;;;17.85;100.00
19777;BME280;10047;42.490;26.012;2023-06-10T03:41:02;102594.09;;;18.06;100.00
19777;BME280;10047;42.490;26.012;2023-06-10T03:46:49;102667.25;;;17.29;100.00
19777;BME280;10047;42.490;26.012;2023-06-10T03:49:14;102568.34;;;17.54;100.00
19777;BME280;10047;42.490;26.012;2023-06-10T03:51:40;102683.72;;;18.38;100.00
19777;BME280;10047;42.490;26.012;2023-06-10T03:54:05;102708.66;;;18.36;100.00
19777;BME280;10047;42.490;26.012;2023-06-10T03:59:53;102851.09;;;18.42;100.00
19777;BME280;10047;42.490;26.012;2023-06-10T04:02:19;102871.44;;;18.65;100.00
19777;BME280;10047;42.490;26.012;2023-06-10T04:04:44;102984.41;;;18.96;100.00
19777;BME280;10047;42.490;26.012;2023-06-10T04:07:10;102950.91;;;18.30;100.00
19777;BME280;10047;42.490;26.012;2023-06-10T04:09:36;103056.47;;;18.37;100.00
19777;BME280;10047;42.490;26.012;2023-06-10T04:12:02;103113.13;;;18.43;100.00
19777;BME280;10047;42.490;26.012;2023-06-10T04:14:31;103187.53;;;18.76;100.00
19777;BME280;10047;42.490;26.012;2023-06-10T04:16:56;103388.25;;;19.26;100.00
19777;BME280;10047;42.490;26.012;2023-06-10T04:22:43;103587.63;;;19.63;100.00
19777;BME280;10047;42.490;26.012;2023-06-10T04:28:31;103606.50;;;19.72;100.00
19777;BME280;10047;42.490;26.012;2023-06-10T04:34:18;103484.09;;;19.87;100.00
19777;BME280;10047;42.490;26.012;2023-06-10T04:36:43;103538.03;;;20.22;100.00
19777;BME280;10047;42.490;26.012;2023-06-10T04:39:08;103538.59;;;20.48;100.00
19777;BME280;10047;42.490;26.012;2023-06-10T04:41:34;103595.59;;;20.37;100.00
19777;BME280;10047;42.490;26.012;2023-06-10T04:47:21;104196.22;;;20.92;100.00
19777;BME280;10047;42.490;26.012;2023-06-10T04:53:08;104376.56;;;21.19;100.00
19777;BME280;10047;42.490;26.012;2023-06-10T04:55:33;104417.97;;;21.29;100.00
19777;BME280;10047;42.490;26.012;2023-06-10T04:57:59;104469.72;;;21.66;100.00
19777;BME280;10047;42.490;26.012;2023-06-10T05:00:25;104422.31;;;21.17;100.00
19777;BME280;10047;42.490;26.012;2023-06-10T05:06:12;104461.16;;;21.12;100.00
19777;BME280;10047;42.490;26.012;2023-06-10T05:08:37;104537.13;;;21.69;100.00
19777;BME280;10047;42.490;26.012;2023-06-10T05:14:24;104550.91;;;21.80;100.00
19777;BME280;10047;42.490;26.012;2023-06-10T05:20:11;104727.25;;;22.16;100.00
19777;BME280;10047;42.490;26.012;2023-06-10T05:22:37;104724.50;;;21.40;100.00
19777;BME280;10047;42.490;26.012;2023-06-10T05:25:03;105267.78;;;21.46;100.00
19777;BME280;10047;42.490;26.012;2023-06-10T05:27:28;107451.06;;;21.80;100.00
19777;BME280;10047;42.490;26.012;2023-06-10T05:33:15;108064.75;;;22.36;100.00
19777;BME280;10047;42.490;26.012;2023-06-10T05:35:41;108129.63;;;22.83;100.00
19777;BME280;10047;42.490;26.012;2023-06-10T05:38:06;108048.34;;;22.54;100.00
19777;BME280;10047;42.490;26.012;2023-06-10T05:40:31;108103.31;;;22.77;100.00
19777;BME280;10047;42.490;26.012;2023-06-10T05:46:19;107953.59;;;22.29;100.00
19777;BME280;10047;42.490;26.012;2023-06-10T05:48:45;107909.09;;;22.06;100.00
19777;BME280;10047;42.490;26.012;2023-06-10T05:51:10;108249.00;;;23.62;100.00
19777;BME280;10047;42.490;26.012;2023-06-10T05:53:36;110111.84;;;23.17;100.00
19777;BME280;10047;42.490;26.012;2023-06-10T05:56:01;109960.19;;;23.51;100.00
19777;BME280;10047;42.490;26.012;2023-06-10T06:01:49;109153.53;;;23.56;100.00
19777;BME280;10047;42.490;26.012;2023-06-10T06:04:15;108921.56;;;23.93;100.00
19777;BME280;10047;42.490;26.012;2023-06-10T06:06:41;108792.59;;;24.00;100.00
19777;BME280;10047;42.490;26.012;2023-06-10T06:09:06;108486.50;;;23.90;100.00
19777;BME280;10047;42.490;26.012;2023-06-10T06:14:53;108096.34;;;24.97;100.00
19777;BME280;10047;42.490;26.012;2023-06-10T06:17:19;107696.25;;;23.79;100.00
19777;BME280;10047;42.490;26.012;2023-06-10T06:19:44;107917.41;;;24.78;100.00
19777;BME280;10047;42.490;26.012;2023-06-10T06:25:34;107534.41;;;23.67;100.00
19777;BME280;10047;42.490;26.012;2023-06-10T06:31:22;107860.66;;;25.64;100.00
19777;BME280;10047;42.490;26.012;2023-06-10T06:33:47;107360.78;;;24.64;100.00
19777;BME280;10047;42.490;26.012;2023-06-10T06:36:13;107286.56;;;25.40;100.00
19777;BME280;10047;42.490;26.012;2023-06-10T06:38:38;107093.91;;;24.90;100.00
19777;BME280;10047;42.490;26.012;2023-06-10T06:44:25;106743.38;;;25.61;100.00
19777;BME280;10047;42.490;26.012;2023-06-10T06:50:12;106456.06;;;26.15;100.00
19777;BME280;10047;42.490;26.012;2023-06-10T06:52:38;106244.28;;;25.86;100.00
19777;BME280;10047;42.490;26.012;2023-06-10T06:55:04;106112.03;;;25.91;100.00
19777;BME280;10047;42.490;26.012;2023-06-10T06:57:29;106059.22;;;26.49;100.00
19777;BME280;10047;42.490;26.012;2023-06-10T06:59:55;105882.41;;;26.47;100.00
19777;BME280;10047;42.490;26.012;2023-06-10T07:02:20;105795.94;;;27.33;100.00
19777;BME280;10047;42.490;26.012;2023-06-10T07:04:46;105741.03;;;27.18;100.00
19777;BME280;10047;42.490;26.012;2023-06-10T07:07:14;105703.75;;;26.78;100.00
19777;BME280;10047;42.490;26.012;2023-06-10T07:13:01;105832.72;;;26.85;100.00
19777;BME280;10047;42.490;26.012;2023-06-10T07:15:26;105732.63;;;26.33;100.00
19777;BME280;10047;42.490;26.012;2023-06-10T07:17:51;105841.22;;;27.47;100.00
19777;BME280;10047;42.490;26.012;2023-06-10T07:20:17;105679.63;;;27.72;100.00
19777;BME280;10047;42.490;26.012;2023-06-10T07:26:04;105126.09;;;27.40;100.00
19777;BME280;10047;42.490;26.012;2023-06-10T07:31:51;105091.66;;;28.91;100.00
19777;BME280;10047;42.490;26.012;2023-06-10T07:34:18;104721.38;;;27.81;100.00
19777;BME280;10047;42.490;26.012;2023-06-10T07:36:43;104686.69;;;27.73;100.00
19777;BME280;10047;42.490;26.012;2023-06-10T07:39:09;104615.44;;;28.58;100.00
19777;BME280;10047;42.490;26.012;2023-06-10T07:45:03;104376.75;;;28.09;100.00
19777;BME280;10047;42.490;26.012;2023-06-10T07:50:51;103939.34;;;28.58;100.00
19777;BME280;10047;42.490;26.012;2023-06-10T07:56:39;102904.31;;;28.30;100.00
19777;BME280;10047;42.490;26.012;2023-06-10T07:59:04;102500.84;;;28.89;100.00
19777;BME280;10047;42.490;26.012;2023-06-10T08:01:29;102330.00;;;28.31;100.00
19777;BME280;10047;42.490;26.012;2023-06-10T08:03:56;102006.09;;;28.71;100.00
19777;BME280;10047;42.490;26.012;2023-06-10T08:06:21;101742.13;;;27.69;100.00
19777;BME280;10047;42.490;26.012;2023-06-10T08:08:47;101806.63;;;27.81;100.00
19777;BME280;10047;42.490;26.012;2023-06-10T08:11:13;101700.22;;;28.05;100.00
19777;BME280;10047;42.490;26.012;2023-06-10T08:13:38;101680.44;;;27.54;100.00
19777;BME280;10047;42.490;26.012;2023-06-10T08:19:26;101582.28;;;28.19;100.00
19777;BME280;10047;42.490;26.012;2023-06-10T08:21:51;101489.28;;;28.15;100.00
19777;BME280;10047;42.490;26.012;2023-06-10T08:24:17;101354.78;;;27.84;100.00
19777;BME280;10047;42.490;26.012;2023-06-10T08:26:43;101215.31;;;28.06;100.00
19777;BME280;10047;42.490;26.012;2023-06-10T08:32:30;101001.38;;;27.89;100.00
19777;BME280;10047;42.490;26.012;2023-06-10T08:34:56;100890.34;;;27.52;100.00
19777;BME280;10047;42.490;26.012;2023-06-10T08:37:21;100805.34;;;27.87;100.00
19777;BME280;10047;42.490;26.012;2023-06-10T08:39:47;100780.78;;;28.09;100.00
19777;BME280;10047;42.490;26.012;2023-06-10T08:42:22;100720.09;;;28.05;100.00
19777;BME280;10047;42.490;26.012;2023-06-10T08:44:53;100608.94;;;27.42;100.00
19777;BME280;10047;42.490;26.012;2023-06-10T08:47:20;100626.47;;;27.99;100.00
19777;BME280;10047;42.490;26.012;2023-06-10T08:53:10;100437.56;;;27.50;100.00
19777;BME280;10047;42.490;26.012;2023-06-10T08:55:42;100487.09;;;27.51;100.00
19777;BME280;10047;42.490;26.012;2023-06-10T08:58:07;100453.38;;;27.58;100.00
19777;BME280;10047;42.490;26.012;2023-06-10T09:00:33;100346.09;;;27.50;100.00
19777;BME280;10047;42.490;26.012;2023-06-10T09:06:22;100350.13;;;27.44;100.00
19777;BME280;10047;42.490;26.012;2023-06-10T09:08:48;100277.72;;;27.17;100.00
19777;BME280;10047;42.490;26.012;2023-06-10T09:11:13;100305.56;;;27.55;100.00
19777;BME280;10047;42.490;26.012;2023-06-10T09:13:38;100242.09;;;27.35;100.00
19777;BME280;10047;42.490;26.012;2023-06-10T09:16:04;100238.88;;;27.41;100.00
19777;BME280;10047;42.490;26.012;2023-06-10T09:18:30;100160.88;;;27.19;100.00
19777;BME280;10047;42.490;26.012;2023-06-10T09:20:56;100183.94;;;28.58;100.00
19777;BME280;10047;42.490;26.012;2023-06-10T09:26:43;100029.44;;;28.50;100.00
19777;BME280;10047;42.490;26.012;2023-06-10T09:29:09;99961.41;;;28.16;100.00
19777;BME280;10047;42.490;26.012;2023-06-10T09:31:38;99992.28;;;27.95;100.00
19777;BME280;10047;42.490;26.012;2023-06-10T09:34:09;100011.81;;;27.48;100.00
19777;BME280;10047;42.490;26.012;2023-06-10T09:40:07;100014.59;;;27.64;100.00
19777;BME280;10047;42.490;26.012;2023-06-10T09:42:34;99999.88;;;27.63;100.00
19777;BME280;10047;42.490;26.012;2023-06-10T09:45:01;99989.34;;;27.73;100.00
19777;BME280;10047;42.490;26.012;2023-06-10T09:47:27;99941.97;;;27.76;100.00
19777;BME280;10047;42.490;26.012;2023-06-10T09:49:52;99949.63;;;27.16;100.00
19777;BME280;10047;42.490;26.012;2023-06-10T09:55:41;99909.94;;;27.48;100.00
19777;BME280;10047;42.490;26.012;2023-06-10T09:58:07;99912.47;;;27.40;100.00
19777;BME280;10047;42.490;26.012;2023-06-10T10:00:33;99837.03;;;27.37;100.00
19777;BME280;10047;42.490;26.012;2023-06-10T10:03:00;99852.72;;;28.30;100.00
19777;BME280;10047;42.490;26.012;2023-06-10T10:08:51;99795.97;;;28.22;100.00
19777;BME280;10047;42.490;26.012;2023-06-10T10:11:17;99763.84;;;27.55;100.00
19777;BME280;10047;42.490;26.012;2023-06-10T10:13:45;99785.38;;;27.31;100.00
19777;BME280;10047;42.490;26.012;2023-06-10T10:16:21;99863.28;;;27.53;100.00
19777;BME280;10047;42.490;26.012;2023-06-10T10:18:54;99831.56;;;27.30;100.00
19777;BME280;10047;42.490;26.012;2023-06-10T10:21:23;99794.09;;;27.39;100.00
19777;BME280;10047;42.490;26.012;2023-06-10T10:23:58;99845.38;;;27.66;100.00
19777;BME280;10047;42.490;26.012;2023-06-10T10:26:26;99799.06;;;27.25;100.00
19777;BME280;10047;42.490;26.012;2023-06-10T10:31:32;99804.13;;;28.19;100.00
19777;BME280;10047;42.490;26.012;2023-06-10T10:34:00;99747.09;;;27.81;100.00
19777;BME280;10047;42.490;26.012;2023-06-10T10:36:27;99758.69;;;27.37;100.00
19777;BME280;10047;42.490;26.012;2023-06-10T10:42:14;99752.63;;;27.36;100.00
19777;BME280;10047;42.490;26.012;2023-06-10T10:44:41;99797.56;;;27.74;100.00
19777;BME280;10047;42.490;26.012;2023-06-10T10:47:10;99728.59;;;28.08;100.00
19777;BME280;10047;42.490;26.012;2023-06-10T10:49:37;99780.38;;;28.05;100.00
19777;BME280;10047;42.490;26.012;2023-06-10T10:55:27;99755.63;;;27.24;100.00
19777;BME280;10047;42.490;26.012;2023-06-10T10:58:06;99817.66;;;27.48;100.00
19777;BME280;10047;42.490;26.012;2023-06-10T11:00:45;99747.50;;;27.53;100.00
19777;BME280;10047;42.490;26.012;2023-06-10T11:06:32;99767.31;;;27.97;100.00
19777;BME280;10047;42.490;26.012;2023-06-10T11:08:57;99710.50;;;27.39;100.00
19777;BME280;10047;42.490;26.012;2023-06-10T11:11:26;99797.19;;;27.61;100.00
19777;BME280;10047;42.490;26.012;2023-06-10T11:16:28;99769.94;;;28.13;100.00
19777;BME280;10047;42.490;26.012;2023-06-10T11:18:54;99728.66;;;27.75;100.00
19777;BME280;10047;42.490;26.012;2023-06-10T11:21:20;99715.78;;;26.96;100.00
19777;BME280;10047;42.490;26.012;2023-06-10T11:23:45;99775.66;;;27.67;100.00
19777;BME280;10047;42.490;26.012;2023-06-10T11:29:02;99804.81;;;28.29;100.00
19777;BME280;10047;42.490;26.012;2023-06-10T11:31:28;99800.97;;;28.58;100.00
19777;BME280;10047;42.490;26.012;2023-06-10T11:33:56;99786.81;;;28.35;100.00
19777;BME280;10047;42.490;26.012;2023-06-10T11:36:22;99727.63;;;28.17;100.00
19777;BME280;10047;42.490;26.012;2023-06-10T11:42:09;99705.56;;;28.20;100.00
19777;BME280;10047;42.490;26.012;2023-06-10T11:44:34;99650.00;;;28.42;100.00
19777;BME280;10047;42.490;26.012;2023-06-10T11:47:03;99720.81;;;28.65;100.00
19777;BME280;10047;42.490;26.012;2023-06-10T11:49:28;99619.84;;;28.86;100.00
19777;BME280;10047;42.490;26.012;2023-06-10T11:55:15;99687.84;;;29.27;100.00
19777;BME280;10047;42.490;26.012;2023-06-10T12:01:02;99702.31;;;28.66;100.00
19777;BME280;10047;42.490;26.012;2023-06-10T12:06:50;99658.66;;;28.02;100.00
19777;BME280;10047;42.490;26.012;2023-06-10T12:12:38;99676.25;;;29.05;100.00
19777;BME280;10047;42.490;26.012;2023-06-10T12:15:04;99661.38;;;29.05;100.00
19777;BME280;10047;42.490;26.012;2023-06-10T12:19:57;99636.88;;;29.37;100.00
19777;BME280;10047;42.490;26.012;2023-06-10T12:22:23;99643.38;;;29.49;100.00
19777;BME280;10047;42.490;26.012;2023-06-10T12:25:00;99622.81;;;28.75;100.00
19777;BME280;10047;42.490;26.012;2023-06-10T12:27:26;99612.56;;;28.58;100.00
19777;BME280;10047;42.490;26.012;2023-06-10T12:29:55;99546.41;;;29.19;100.00
19777;BME280;10047;42.490;26.012;2023-06-10T12:32:21;99572.06;;;29.31;100.00
19777;BME280;10047;42.490;26.012;2023-06-10T12:35:02;99559.88;;;29.38;100.00
19777;BME280;10047;42.490;26.012;2023-06-10T12:40:50;99526.19;;;28.42;100.00
19777;BME280;10047;42.490;26.012;2023-06-10T12:46:38;99567.97;;;30.05;100.00
19777;BME280;10047;42.490;26.012;2023-06-10T12:49:03;99600.91;;;29.23;100.00
19777;BME280;10047;42.490;26.012;2023-06-10T12:51:28;99527.44;;;30.22;100.00
19777;BME280;10047;42.490;26.012;2023-06-10T12:53:54;99605.34;;;28.68;100.00
19777;BME280;10047;42.490;26.012;2023-06-10T12:59:41;99544.56;;;28.88;100.00
19777;BME280;10047;42.490;26.012;2023-06-10T13:05:31;99575.09;;;29.04;100.00
19777;BME280;10047;42.490;26.012;2023-06-10T13:07:57;99574.44;;;29.41;100.00
19777;BME280;10047;42.490;26.012;2023-06-10T13:10:22;99464.34;;;29.49;100.00
19777;BME280;10047;42.490;26.012;2023-06-10T13:12:48;99484.13;;;29.74;100.00
19777;BME280;10047;42.490;26.012;2023-06-10T13:15:14;99551.22;;;30.06;100.00
19777;BME280;10047;42.490;26.012;2023-06-10T13:21:02;99577.19;;;29.78;100.00
19777;BME280;10047;42.490;26.012;2023-06-10T13:23:27;99535.53;;;30.35;100.00
19777;BME280;10047;42.490;26.012;2023-06-10T13:25:53;99505.34;;;29.87;100.00
19777;BME280;10047;42.490;26.012;2023-06-10T13:28:18;99547.69;;;30.65;100.00
19777;BME280;10047;42.490;26.012;2023-06-10T13:30:44;99500.28;;;30.00;100.00
19777;BME280;10047;42.490;26.012;2023-06-10T13:33:10;99592.06;;;29.55;100.00
19777;BME280;10047;42.490;26.012;2023-06-10T13:35:36;99600.88;;;29.31;100.00
19777;BME280;10047;42.490;26.012;2023-06-10T13:38:01;99576.09;;;30.32;100.00
19777;BME280;10047;42.490;26.012;2023-06-10T13:43:49;99492.91;;;28.74;100.00
19777;BME280;10047;42.490;26.012;2023-06-10T13:49:36;99538.91;;;30.43;100.00
19777;BME280;10047;42.490;26.012;2023-06-10T13:55:23;99538.34;;;30.62;100.00
19777;BME280;10047;42.490;26.012;2023-06-10T13:57:50;99515.88;;;29.56;100.00
19777;BME280;10047;42.490;26.012;2023-06-10T14:00:16;99532.75;;;30.65;100.00
19777;BME280;10047;42.490;26.012;2023-06-10T14:02:41;99609.06;;;28.73;100.00
19777;BME280;10047;42.490;26.012;2023-06-10T14:08:28;99590.34;;;28.92;100.00
19777;BME280;10047;42.490;26.012;2023-06-10T14:10:54;99550.13;;;28.31;100.00
19777;BME280;10047;42.490;26.012;2023-06-10T14:13:19;99611.53;;;28.51;100.00
19777;BME280;10047;42.490;26.012;2023-06-10T14:15:45;99625.28;;;28.45;100.00
19777;BME280;10047;42.490;26.012;2023-06-10T14:18:11;99620.53;;;27.92;100.00
19777;BME280;10047;42.490;26.012;2023-06-10T14:20:37;99588.06;;;28.02;100.00
19777;BME280;10047;42.490;26.012;2023-06-10T14:23:02;99590.50;;;27.96;100.00
19777;BME280;10047;42.490;26.012;2023-06-10T14:25:28;99579.84;;;28.21;100.00
19777;BME280;10047;42.490;26.012;2023-06-10T14:31:15;99515.78;;;27.77;100.00
19777;BME280;10047;42.490;26.012;2023-06-10T14:33:41;99563.94;;;28.71;100.00
19777;BME280;10047;42.490;26.012;2023-06-10T14:36:08;99614.34;;;28.25;100.00
19777;BME280;10047;42.490;26.012;2023-06-10T14:38:33;99607.50;;;28.24;100.00
19777;BME280;10047;42.490;26.012;2023-06-10T14:40:59;99548.97;;;28.01;100.00
19777;BME280;10047;42.490;26.012;2023-06-10T14:43:24;99603.56;;;28.36;100.00
19777;BME280;10047;42.490;26.012;2023-06-10T14:45:50;99567.66;;;28.85;100.00
19777;BME280;10047;42.490;26.012;2023-06-10T14:48:16;99571.53;;;28.97;100.00
19777;BME280;10047;42.490;26.012;2023-06-10T14:54:03;99540.97;;;27.94;100.00
19777;BME280;10047;42.490;26.012;2023-06-10T14:56:29;99565.09;;;28.45;100.00
19777;BME280;10047;42.490;26.012;2023-06-10T14:58:54;99554.81;;;28.98;100.00
19777;BME280;10047;42.490;26.012;2023-06-10T15:01:20;99557.50;;;28.90;100.00
19777;BME280;10047;42.490;26.012;2023-06-10T15:07:07;99566.28;;;28.58;100.00
19777;BME280;10047;42.490;26.012;2023-06-10T15:09:32;99511.72;;;28.07;100.00
19777;BME280;10047;42.490;26.012;2023-06-10T15:11:58;99478.72;;;28.53;100.00
19777;BME280;10047;42.490;26.012;2023-06-10T15:14:24;99498.63;;;29.08;100.00
19777;BME280;10047;42.490;26.012;2023-06-10T15:16:51;99535.47;;;29.15;100.00
19777;BME280;10047;42.490;26.012;2023-06-10T15:19:16;99515.91;;;28.48;100.00
19777;BME280;10047;42.490;26.012;2023-06-10T15:21:42;99515.63;;;28.19;100.00
19777;BME280;10047;42.490;26.012;2023-06-10T15:24:07;99533.28;;;28.17;100.00
19777;BME280;10047;42.490;26.012;2023-06-10T15:29:54;99537.50;;;28.42;100.00
19777;BME280;10047;42.490;26.012;2023-06-10T15:32:20;99553.50;;;28.39;100.00
19777;BME280;10047;42.490;26.012;2023-06-10T15:34:45;99485.66;;;28.46;100.00
19777;BME280;10047;42.490;26.012;2023-06-10T15:37:13;99549.09;;;28.94;100.00
19777;BME280;10047;42.490;26.012;2023-06-10T15:39:39;99549.25;;;28.62;100.00
19777;BME280;10047;42.490;26.012;2023-06-10T15:42:04;99533.66;;;28.69;100.00
19777;BME280;10047;42.490;26.012;2023-06-10T15:44:30;99518.59;;;29.09;100.00
19777;BME280;10047;42.490;26.012;2023-06-10T15:46:55;99422.34;;;28.58;100.00
19777;BME280;10047;42.490;26.012;2023-06-10T15:52:42;99531.34;;;29.12;100.00
19777;BME280;10047;42.490;26.012;2023-06-10T15:55:08;99552.44;;;28.80;100.00
19777;BME280;10047;42.490;26.012;2023-06-10T15:57:33;99547.31;;;28.40;100.00
19777;BME280;10047;42.490;26.012;2023-06-10T15:59:59;99503.72;;;28.00;100.00
19777;BME280;10047;42.490;26.012;2023-06-10T16:02:24;99485.78;;;28.52;100.00
19777;BME280;10047;42.490;26.012;2023-06-10T16:04:50;99581.66;;;28.21;100.00
19777;BME280;10047;42.490;26.012;2023-06-10T16:07:15;99616.00;;;28.10;100.00
19777;BME280;10047;42.490;26.012;2023-06-10T16:13:02;99630.38;;;28.06;100.00
19777;BME280;10047;42.490;26.012;2023-06-10T16:15:27;99605.53;;;28.02;100.00
19777;BME280;10047;42.490;26.012;2023-06-10T16:17:53;99583.28;;;27.32;100.00
19777;BME280;10047;42.490;26.012;2023-06-10T16:20:19;99671.13;;;27.67;100.00
19777;BME280;10047;42.490;26.012;2023-06-10T16:26:06;99793.28;;;27.65;100.00
19777;BME280;10047;42.490;26.012;2023-06-10T16:28:32;99831.00;;;27.36;100.00
19777;BME280;10047;42.490;26.012;2023-06-10T16:30:57;99889.47;;;27.43;100.00
19777;BME280;10047;42.490;26.012;2023-06-10T16:33:22;99948.84;;;27.33;100.00
19777;BME280;10047;42.490;26.012;2023-06-10T16:35:48;100039.09;;;27.18;100.00
19777;BME280;10047;42.490;26.012;2023-06-10T16:38:13;100040.78;;;27.10;100.00